sensor_id;sensor_type;location;lat;lon;timestamp;temperature;humidity
31391;DHT22;18022;45.492;11.548;2022-11-06T00:01:11;8.70;99.90
31391;DHT22;18022;45.492;11.548;2022-11-06T00:03:37;8.80;99.90
31391;DHT22;18022;45.492;11.548;2022-11-06T00:06:10;8.70;99.90
31391;DHT22;18022;45.492;11.548;2022-11-06T00:08:55;8.50;99.90
31391;DHT22;18022;45.492;11.548;2022-11-06T00:11:21;8.30;99.90
31391;DHT22;18022;45.492;11.548;2022-11-06T00:13:47;8.30;99.90
31391;DHT22;18022;45.492;11.548;2022-11-06T00:16:13;8.40;99.90
31391;DHT22;18022;45.492;11.548;2022-11-06T00:18:41;8.30;99.90
31391;DHT22;18022;45.492;11.548;2022-11-06T00:21:22;8.50;99.90
31391;DHT22;18022;45.492;11.548;2022-11-06T00:23:49;8.30;99.90
31391;DHT22;18022;45.492;11.548;2022-11-06T00:26:24;8.40;99.90
31391;DHT22;18022;45.492;11.548;2022-11-06T00:28:56;8.30;99.90
31391;DHT22;18022;45.492;11.548;2022-11-06T00:31:24;8.10;99.90
31391;DHT22;18022;45.492;11.548;2022-11-06T00:33:52;7.90;99.90
31391;DHT22;18022;45.492;11.548;2022-11-06T00:36:22;7.80;99.90
31391;DHT22;18022;45.492;11.548;2022-11-06T00:38:53;7.90;99.90
31391;DHT22;18022;45.492;11.548;2022-11-06T00:41:19;7.80;99.90
31391;DHT22;18022;45.492;11.548;2022-11-06T00:43:54;7.70;99.90
31391;DHT22;18022;45.492;11.548;2022-11-06T00:46:20;7.80;99.90
31391;DHT22;18022;45.492;11.548;2022-11-06T00:48:46;7.80;99.90
31391;DHT22;18022;45.492;11.548;2022-11-06T00:51:19;7.90;99.90
31391;DHT22;18022;45.492;11.548;2022-11-06T00:53:45;7.90;99.90
31391;DHT22;18022;45.492;11.548;2022-11-06T00:56:18;8.10;99.90
31391;DHT22;18022;45.492;11.548;2022-11-06T00:58:45;8.10;99.90
31391;DHT22;18022;45.492;11.548;2022-11-06T01:01:17;8.10;99.90
31391;DHT22;18022;45.492;11.548;2022-11-06T01:03:45;8.20;99.90
31391;DHT22;18022;45.492;11.548;2022-11-06T01:06:12;8.20;99.90
31391;DHT22;18022;45.492;11.548;2022-11-06T01:08:38;8.20;99.90
31391;DHT22;18022;45.492;11.548;2022-11-06T01:11:10;8.20;99.90
31391;DHT22;18022;45.492;11.548;2022-11-06T01:13:36;7.90;99.90
31391;DHT22;18022;45.492;11.548;2022-11-06T01:16:05;7.80;99.90
31391;DHT22;18022;45.492;11.548;2022-11-06T01:18:31;7.90;99.90
31391;DHT22;18022;45.492;11.548;2022-11-06T01:20:56;8.00;99.90
31391;DHT22;18022;45.492;11.548;2022-11-06T01:23:22;7.90;99.90
31391;DHT22;18022;45.492;11.548;2022-11-06T01:26:03;7.70;99.90
31391;DHT22;18022;45.492;11.548;2022-11-06T01:28:29;7.80;99.90
31391;DHT22;18022;45.492;11.548;2022-11-06T01:33:34;7.70;99.90
31391;DHT22;18022;45.492;11.548;2022-11-06T01:35:59;7.70;99.90
31391;DHT22;18022;45.492;11.548;2022-11-06T01:38:26;7.50;99.90
31391;DHT22;18022;45.492;11.548;2022-11-06T01:40:52;7.60;99.90
31391;DHT22;18022;45.492;11.548;2022-11-06T01:44:03;7.60;99.90
31391;DHT22;18022;45.492;11.548;2022-11-06T01:46:31;7.70;99.90
31391;DHT22;18022;45.492;11.548;2022-11-06T01:51:31;7.80;99.90
31391;DHT22;18022;45.492;11.548;2022-11-06T01:53:59;7.80;99.90
31391;DHT22;18022;45.492;11.548;2022-11-06T01:56:27;7.80;99.90
31391;DHT22;18022;45.492;11.548;2022-11-06T01:58:53;7.80;99.90
31391;DHT22;18022;45.492;11.548;2022-11-06T02:01:20;7.80;99.90
31391;DHT22;18022;45.492;11.548;2022-11-06T02:04:25;7.70;99.90
31391;DHT22;18022;45.492;11.548;2022-11-06T02:06:51;7.50;99.90
31391;DHT22;18022;45.492;11.548;2022-11-06T02:09:18;7.50;99.90
31391;DHT22;18022;45.492;11.548;2022-11-06T02:29:30;7.30;99.90
31391;DHT22;18022;45.492;11.548;2022-11-06T02:31:59;7.40;99.90
31391;DHT22;18022;45.492;11.548;2022-11-06T02:34:29;7.40;99.90
31391;DHT22;18022;45.492;11.548;2022-11-06T02:37:01;7.40;99.90
31391;DHT22;18022;45.492;11.548;2022-11-06T02:39:30;7.50;99.90
31391;DHT22;18022;45.492;11.548;2022-11-06T02:41:58;7.40;99.90
31391;DHT22;18022;45.492;11.548;2022-11-06T02:44:26;7.30;99.90
31391;DHT22;18022;45.492;11.548;2022-11-06T02:46:56;7.10;99.90
31391;DHT22;18022;45.492;11.548;2022-11-06T02:49:45;7.00;99.90
31391;DHT22;18022;45.492;11.548;2022-11-06T02:52:24;7.10;99.90
31391;DHT22;18022;45.492;11.548;2022-11-06T02:55:06;7.10;99.90
31391;DHT22;18022;45.492;11.548;2022-11-06T02:57:36;7.10;99.90
31391;DHT22;18022;45.492;11.548;2022-11-06T03:00:10;7.00;99.90
31391;DHT22;18022;45.492;11.548;2022-11-06T03:05:22;7.20;99.90
31391;DHT22;18022;45.492;11.548;2022-11-06T03:10:17;7.30;99.90
31391;DHT22;18022;45.492;11.548;2022-11-06T03:15:30;7.40;99.90
31391;DHT22;18022;45.492;11.548;2022-11-06T03:18:05;7.60;99.90
31391;DHT22;18022;45.492;11.548;2022-11-06T03:26:02;7.80;99.90
31391;DHT22;18022;45.492;11.548;2022-11-06T03:28:52;7.90;99.90
31391;DHT22;18022;45.492;11.548;2022-11-06T03:31:28;7.90;99.90
31391;DHT22;18022;45.492;11.548;2022-11-06T03:33:58;7.80;99.90
31391;DHT22;18022;45.492;11.548;2022-11-06T03:36:31;7.60;99.90
31391;DHT22;18022;45.492;11.548;2022-11-06T03:39:02;7.50;99.90
31391;DHT22;18022;45.492;11.548;2022-11-06T03:44:04;7.50;99.90
31391;DHT22;18022;45.492;11.548;2022-11-06T03:46:32;7.20;99.90
31391;DHT22;18022;45.492;11.548;2022-11-06T03:49:04;7.30;99.90
31391;DHT22;18022;45.492;11.548;2022-11-06T03:51:41;7.40;99.90
31391;DHT22;18022;45.492;11.548;2022-11-06T03:54:22;7.50;99.90
31391;DHT22;18022;45.492;11.548;2022-11-06T03:56:58;7.70;99.90
31391;DHT22;18022;45.492;11.548;2022-11-06T03:59:31;7.70;99.90
31391;DHT22;18022;45.492;11.548;2022-11-06T04:01:59;7.70;99.90
31391;DHT22;18022;45.492;11.548;2022-11-06T04:04:40;7.70;99.90
31391;DHT22;18022;45.492;11.548;2022-11-06T04:07:12;7.70;99.90
31391;DHT22;18022;45.492;11.548;2022-11-06T04:09:43;7.70;99.90
31391;DHT22;18022;45.492;11.548;2022-11-06T04:12:30;7.70;99.90
31391;DHT22;18022;45.492;11.548;2022-11-06T04:15:17;7.80;99.90
31391;DHT22;18022;45.492;11.548;2022-11-06T04:17:44;7.80;99.90
31391;DHT22;18022;45.492;11.548;2022-11-06T04:20:12;7.60;99.90
31391;DHT22;18022;45.492;11.548;2022-11-06T04:23:33;7.30;99.90
31391;DHT22;18022;45.492;11.548;2022-11-06T04:26:07;7.10;99.90
31391;DHT22;18022;45.492;11.548;2022-11-06T04:29:12;7.10;99.90
31391;DHT22;18022;45.492;11.548;2022-11-06T04:32:20;7.20;99.90
31391;DHT22;18022;45.492;11.548;2022-11-06T04:38:01;7.30;99.90
31391;DHT22;18022;45.492;11.548;2022-11-06T04:43:31;7.30;99.90
31391;DHT22;18022;45.492;11.548;2022-11-06T04:46:00;7.00;99.90
31391;DHT22;18022;45.492;11.548;2022-11-06T04:48:27;7.00;99.90
31391;DHT22;18022;45.492;11.548;2022-11-06T04:51:00;6.90;99.90
31391;DHT22;18022;45.492;11.548;2022-11-06T04:53:29;6.90;99.90
31391;DHT22;18022;45.492;11.548;2022-11-06T04:56:05;7.10;99.90
31391;DHT22;18022;45.492;11.548;2022-11-06T04:58:30;7.20;99.90
31391;DHT22;18022;45.492;11.548;2022-11-06T05:00:56;7.30;99.90
31391;DHT22;18022;45.492;11.548;2022-11-06T05:03:22;7.30;99.90
31391;DHT22;18022;45.492;11.548;2022-11-06T05:05:47;7.30;99.90
31391;DHT22;18022;45.492;11.548;2022-11-06T05:08:17;7.30;99.90
31391;DHT22;18022;45.492;11.548;2022-11-06T05:10:44;7.10;99.90
31391;DHT22;18022;45.492;11.548;2022-11-06T05:13:10;6.80;99.90
31391;DHT22;18022;45.492;11.548;2022-11-06T05:15:36;6.80;99.90
31391;DHT22;18022;45.492;11.548;2022-11-06T05:18:02;6.70;99.90
31391;DHT22;18022;45.492;11.548;2022-11-06T05:20:28;6.80;99.90
31391;DHT22;18022;45.492;11.548;2022-11-06T05:22:54;6.70;99.90
31391;DHT22;18022;45.492;11.548;2022-11-06T05:25:31;6.80;99.90
31391;DHT22;18022;45.492;11.548;2022-11-06T05:27:58;6.90;99.90
31391;DHT22;18022;45.492;11.548;2022-11-06T05:30:24;7.00;99.90
31391;DHT22;18022;45.492;11.548;2022-11-06T05:32:51;7.10;99.90
31391;DHT22;18022;45.492;11.548;2022-11-06T05:35:18;7.20;99.90
31391;DHT22;18022;45.492;11.548;2022-11-06T05:37:45;7.20;99.90
31391;DHT22;18022;45.492;11.548;2022-11-06T05:40:11;7.30;99.90
31391;DHT22;18022;45.492;11.548;2022-11-06T05:42:38;7.30;99.90
31391;DHT22;18022;45.492;11.548;2022-11-06T05:45:05;7.30;99.90
31391;DHT22;18022;45.492;11.548;2022-11-06T05:47:31;7.10;99.90
31391;DHT22;18022;45.492;11.548;2022-11-06T05:49:57;6.90;99.90
31391;DHT22;18022;45.492;11.548;2022-11-06T05:52:23;6.40;99.90
31391;DHT22;18022;45.492;11.548;2022-11-06T05:54:48;6.20;99.90
31391;DHT22;18022;45.492;11.548;2022-11-06T05:57:14;6.20;99.90
31391;DHT22;18022;45.492;11.548;2022-11-06T05:59:40;6.30;99.90
31391;DHT22;18022;45.492;11.548;2022-11-06T06:02:06;6.40;99.90
31391;DHT22;18022;45.492;11.548;2022-11-06T06:04:32;6.40;99.90
31391;DHT22;18022;45.492;11.548;2022-11-06T06:06:57;6.30;99.90
31391;DHT22;18022;45.492;11.548;2022-11-06T06:09:23;6.20;99.90
31391;DHT22;18022;45.492;11.548;2022-11-06T06:11:52;6.30;99.90
31391;DHT22;18022;45.492;11.548;2022-11-06T06:14:19;6.20;99.90
31391;DHT22;18022;45.492;11.548;2022-11-06T06:16:44;6.30;99.90
31391;DHT22;18022;45.492;11.548;2022-11-06T06:19:10;6.20;99.90
31391;DHT22;18022;45.492;11.548;2022-11-06T06:21:36;6.20;99.90
31391;DHT22;18022;45.492;11.548;2022-11-06T06:24:04;6.00;99.90
31391;DHT22;18022;45.492;11.548;2022-11-06T06:26:30;6.00;99.90
31391;DHT22;18022;45.492;11.548;2022-11-06T06:28:56;6.10;99.90
31391;DHT22;18022;45.492;11.548;2022-11-06T06:31:21;6.20;99.90
31391;DHT22;18022;45.492;11.548;2022-11-06T06:33:47;6.30;99.90
31391;DHT22;18022;45.492;11.548;2022-11-06T06:36:13;6.30;99.90
31391;DHT22;18022;45.492;11.548;2022-11-06T06:38:38;6.30;99.90
31391;DHT22;18022;45.492;11.548;2022-11-06T06:41:06;6.30;99.90
31391;DHT22;18022;45.492;11.548;2022-11-06T06:43:33;6.30;99.90
31391;DHT22;18022;45.492;11.548;2022-11-06T06:46:00;6.20;99.90
31391;DHT22;18022;45.492;11.548;2022-11-06T06:48:26;6.30;99.90
31391;DHT22;18022;45.492;11.548;2022-11-06T06:50:54;6.30;99.90
31391;DHT22;18022;45.492;11.548;2022-11-06T06:53:20;6.50;99.90
31391;DHT22;18022;45.492;11.548;2022-11-06T06:55:46;6.70;99.90
31391;DHT22;18022;45.492;11.548;2022-11-06T06:58:11;6.80;99.90
31391;DHT22;18022;45.492;11.548;2022-11-06T07:00:37;7.00;99.90
31391;DHT22;18022;45.492;11.548;2022-11-06T07:03:03;7.10;99.90
31391;DHT22;18022;45.492;11.548;2022-11-06T07:05:28;7.10;99.90
31391;DHT22;18022;45.492;11.548;2022-11-06T07:07:55;7.20;99.90
31391;DHT22;18022;45.492;11.548;2022-11-06T07:10:21;7.20;99.90
31391;DHT22;18022;45.492;11.548;2022-11-06T07:12:47;7.30;99.90
31391;DHT22;18022;45.492;11.548;2022-11-06T07:15:13;7.40;99.90
31391;DHT22;18022;45.492;11.548;2022-11-06T07:17:39;7.60;99.90
31391;DHT22;18022;45.492;11.548;2022-11-06T07:20:06;7.70;99.90
31391;DHT22;18022;45.492;11.548;2022-11-06T07:22:32;7.80;99.90
31391;DHT22;18022;45.492;11.548;2022-11-06T07:24:57;7.90;99.90
31391;DHT22;18022;45.492;11.548;2022-11-06T07:27:23;8.00;99.90
31391;DHT22;18022;45.492;11.548;2022-11-06T07:29:49;8.10;99.90
31391;DHT22;18022;45.492;11.548;2022-11-06T07:32:14;8.20;99.90
31391;DHT22;18022;45.492;11.548;2022-11-06T07:34:40;8.30;99.90
31391;DHT22;18022;45.492;11.548;2022-11-06T07:37:06;8.50;99.90
31391;DHT22;18022;45.492;11.548;2022-11-06T07:39:32;8.60;99.90
31391;DHT22;18022;45.492;11.548;2022-11-06T07:41:58;8.70;99.90
31391;DHT22;18022;45.492;11.548;2022-11-06T07:44:24;8.80;99.90
31391;DHT22;18022;45.492;11.548;2022-11-06T07:46:49;8.90;99.90
31391;DHT22;18022;45.492;11.548;2022-11-06T07:49:15;9.10;99.90
31391;DHT22;18022;45.492;11.548;2022-11-06T07:51:41;9.20;99.90
31391;DHT22;18022;45.492;11.548;2022-11-06T07:54:07;9.40;99.90
31391;DHT22;18022;45.492;11.548;2022-11-06T07:56:34;9.50;99.90
31391;DHT22;18022;45.492;11.548;2022-11-06T07:59:00;9.60;99.90
31391;DHT22;18022;45.492;11.548;2022-11-06T08:01:25;9.70;99.90
31391;DHT22;18022;45.492;11.548;2022-11-06T08:03:51;9.80;99.90
31391;DHT22;18022;45.492;11.548;2022-11-06T08:06:17;9.90;99.90
31391;DHT22;18022;45.492;11.548;2022-11-06T08:08:42;10.10;99.90
31391;DHT22;18022;45.492;11.548;2022-11-06T08:11:09;10.20;99.90
31391;DHT22;18022;45.492;11.548;2022-11-06T08:13:36;10.40;99.90
31391;DHT22;18022;45.492;11.548;2022-11-06T08:16:06;10.60;99.90
31391;DHT22;18022;45.492;11.548;2022-11-06T08:18:32;10.80;99.90
31391;DHT22;18022;45.492;11.548;2022-11-06T08:20:58;10.90;99.90
31391;DHT22;18022;45.492;11.548;2022-11-06T08:23:24;11.10;99.90
31391;DHT22;18022;45.492;11.548;2022-11-06T08:25:57;11.20;99.90
31391;DHT22;18022;45.492;11.548;2022-11-06T08:28:24;11.30;99.90
31391;DHT22;18022;45.492;11.548;2022-11-06T08:30:50;11.40;99.90
31391;DHT22;18022;45.492;11.548;2022-11-06T08:33:16;11.50;99.90
31391;DHT22;18022;45.492;11.548;2022-11-06T08:35:42;11.70;99.90
31391;DHT22;18022;45.492;11.548;2022-11-06T08:38:08;11.80;99.90
31391;DHT22;18022;45.492;11.548;2022-11-06T08:40:36;11.90;99.90
31391;DHT22;18022;45.492;11.548;2022-11-06T08:43:08;11.90;99.90
31391;DHT22;18022;45.492;11.548;2022-11-06T08:45:41;12.00;99.90
31391;DHT22;18022;45.492;11.548;2022-11-06T08:48:08;12.20;99.90
31391;DHT22;18022;45.492;11.548;2022-11-06T08:50:36;12.40;99.90
31391;DHT22;18022;45.492;11.548;2022-11-06T08:53:02;12.60;99.90
31391;DHT22;18022;45.492;11.548;2022-11-06T08:55:36;12.80;99.90
31391;DHT22;18022;45.492;11.548;2022-11-06T08:58:03;13.00;99.90
31391;DHT22;18022;45.492;11.548;2022-11-06T09:00:29;13.20;99.90
31391;DHT22;18022;45.492;11.548;2022-11-06T09:03:04;13.30;99.90
31391;DHT22;18022;45.492;11.548;2022-11-06T09:05:30;13.30;99.90
31391;DHT22;18022;45.492;11.548;2022-11-06T09:07:57;13.40;99.90
31391;DHT22;18022;45.492;11.548;2022-11-06T09:10:23;13.40;99.90
31391;DHT22;18022;45.492;11.548;2022-11-06T09:12:49;13.60;99.90
31391;DHT22;18022;45.492;11.548;2022-11-06T09:15:15;13.80;99.90
31391;DHT22;18022;45.492;11.548;2022-11-06T09:17:42;13.90;99.40
31391;DHT22;18022;45.492;11.548;2022-11-06T09:20:09;13.80;98.40
31391;DHT22;18022;45.492;11.548;2022-11-06T09:22:35;14.00;99.90
31391;DHT22;18022;45.492;11.548;2022-11-06T09:25:00;14.10;99.90
31391;DHT22;18022;45.492;11.548;2022-11-06T09:27:26;14.30;99.90
31391;DHT22;18022;45.492;11.548;2022-11-06T09:29:51;14.40;99.90
31391;DHT22;18022;45.492;11.548;2022-11-06T09:32:18;14.40;98.00
31391;DHT22;18022;45.492;11.548;2022-11-06T09:34:43;14.60;98.00
31391;DHT22;18022;45.492;11.548;2022-11-06T09:37:09;14.60;94.20
31391;DHT22;18022;45.492;11.548;2022-11-06T09:39:35;14.30;93.90
31391;DHT22;18022;45.492;11.548;2022-11-06T09:42:13;14.40;94.30
31391;DHT22;18022;45.492;11.548;2022-11-06T09:47:23;14.50;94.50
31391;DHT22;18022;45.492;11.548;2022-11-06T09:49:53;14.70;94.80
31391;DHT22;18022;45.492;11.548;2022-11-06T09:52:37;14.50;94.50
31391;DHT22;18022;45.492;11.548;2022-11-06T09:55:11;14.70;94.30
31391;DHT22;18022;45.492;11.548;2022-11-06T09:57:48;14.80;94.40
31391;DHT22;18022;45.492;11.548;2022-11-06T10:00:16;14.70;93.80
31391;DHT22;18022;45.492;11.548;2022-11-06T10:02:54;14.80;94.70
31391;DHT22;18022;45.492;11.548;2022-11-06T10:05:31;15.30;94.70
31391;DHT22;18022;45.492;11.548;2022-11-06T10:08:00;15.50;95.60
31391;DHT22;18022;45.492;11.548;2022-11-06T10:10:39;15.70;94.10
31391;DHT22;18022;45.492;11.548;2022-11-06T10:23:58;15.90;94.30
31391;DHT22;18022;45.492;11.548;2022-11-06T10:26:54;16.20;93.40
31391;DHT22;18022;45.492;11.548;2022-11-06T10:34:51;16.50;93.20
31391;DHT22;18022;45.492;11.548;2022-11-06T10:37:25;16.70;92.90
31391;DHT22;18022;45.492;11.548;2022-11-06T10:39:55;16.70;92.80
31391;DHT22;18022;45.492;11.548;2022-11-06T10:42:33;16.90;92.40
31391;DHT22;18022;45.492;11.548;2022-11-06T10:45:03;16.90;92.90
31391;DHT22;18022;45.492;11.548;2022-11-06T10:48:13;16.70;93.10
31391;DHT22;18022;45.492;11.548;2022-11-06T10:50:19;16.60;92.90
31391;DHT22;18022;45.492;11.548;2022-11-06T10:55:40;16.60;92.10
31391;DHT22;18022;45.492;11.548;2022-11-06T10:58:16;16.50;92.10
31391;DHT22;18022;45.492;11.548;2022-11-06T11:00:42;16.60;92.90
31391;DHT22;18022;45.492;11.548;2022-11-06T11:05:50;17.00;92.50
31391;DHT22;18022;45.492;11.548;2022-11-06T11:08:31;17.00;92.50
31391;DHT22;18022;45.492;11.548;2022-11-06T11:11:24;17.00;92.50
31391;DHT22;18022;45.492;11.548;2022-11-06T11:14:13;17.20;92.70
31391;DHT22;18022;45.492;11.548;2022-11-06T11:16:42;17.10;91.80
31391;DHT22;18022;45.492;11.548;2022-11-06T11:19:34;17.30;92.30
31391;DHT22;18022;45.492;11.548;2022-11-06T11:22:16;17.50;92.50
31391;DHT22;18022;45.492;11.548;2022-11-06T11:25:06;17.70;91.40
31391;DHT22;18022;45.492;11.548;2022-11-06T11:27:42;17.80;91.40
31391;DHT22;18022;45.492;11.548;2022-11-06T11:30:20;17.80;92.10
31391;DHT22;18022;45.492;11.548;2022-11-06T11:32:47;18.20;91.40
31391;DHT22;18022;45.492;11.548;2022-11-06T11:35:18;17.50;91.90
31391;DHT22;18022;45.492;11.548;2022-11-06T11:37:44;17.40;92.80
31391;DHT22;18022;45.492;11.548;2022-11-06T11:40:35;17.40;93.10
31391;DHT22;18022;45.492;11.548;2022-11-06T11:43:26;17.30;92.20
31391;DHT22;18022;45.492;11.548;2022-11-06T11:48:49;18.30;92.90
31391;DHT22;18022;45.492;11.548;2022-11-06T11:51:43;18.30;92.60
31391;DHT22;18022;45.492;11.548;2022-11-06T11:56:48;18.50;91.80
31391;DHT22;18022;45.492;11.548;2022-11-06T11:59:17;18.60;91.90
31391;DHT22;18022;45.492;11.548;2022-11-06T12:01:44;18.60;92.90
31391;DHT22;18022;45.492;11.548;2022-11-06T12:04:30;18.60;92.70
31391;DHT22;18022;45.492;11.548;2022-11-06T12:07:04;18.60;92.90
31391;DHT22;18022;45.492;11.548;2022-11-06T12:09:40;18.60;91.90
31391;DHT22;18022;45.492;11.548;2022-11-06T12:12:21;18.40;91.90
31391;DHT22;18022;45.492;11.548;2022-11-06T12:17:33;18.60;91.40
31391;DHT22;18022;45.492;11.548;2022-11-06T12:20:02;18.60;91.80
31391;DHT22;18022;45.492;11.548;2022-11-06T12:22:34;18.90;92.80
31391;DHT22;18022;45.492;11.548;2022-11-06T12:25:18;18.80;91.70
31391;DHT22;18022;45.492;11.548;2022-11-06T12:27:51;18.70;91.80
31391;DHT22;18022;45.492;11.548;2022-11-06T12:30:18;18.80;91.30
31391;DHT22;18022;45.492;11.548;2022-11-06T12:33:20;18.90;91.60
31391;DHT22;18022;45.492;11.548;2022-11-06T12:35:54;19.00;91.30
31391;DHT22;18022;45.492;11.548;2022-11-06T12:38:31;19.00;91.00
31391;DHT22;18022;45.492;11.548;2022-11-06T12:41:30;18.80;90.60
31391;DHT22;18022;45.492;11.548;2022-11-06T12:43:57;18.90;90.80
31391;DHT22;18022;45.492;11.548;2022-11-06T13:00:21;18.90;90.80
31391;DHT22;18022;45.492;11.548;2022-11-06T13:13:55;19.00;90.40
31391;DHT22;18022;45.492;11.548;2022-11-06T13:19:07;19.00;90.70
31391;DHT22;18022;45.492;11.548;2022-11-06T13:24:29;18.50;90.30
31391;DHT22;18022;45.492;11.548;2022-11-06T13:27:10;18.80;90.90
31391;DHT22;18022;45.492;11.548;2022-11-06T13:29:38;19.20;90.80
31391;DHT22;18022;45.492;11.548;2022-11-06T13:32:09;19.10;90.00
31391;DHT22;18022;45.492;11.548;2022-11-06T13:34:38;18.80;90.30
31391;DHT22;18022;45.492;11.548;2022-11-06T13:37:16;18.80;90.50
31391;DHT22;18022;45.492;11.548;2022-11-06T13:39:49;19.00;90.70
31391;DHT22;18022;45.492;11.548;2022-11-06T13:42:48;19.00;91.30
31391;DHT22;18022;45.492;11.548;2022-11-06T13:45:16;19.00;91.20
31391;DHT22;18022;45.492;11.548;2022-11-06T13:52:55;18.70;90.30
31391;DHT22;18022;45.492;11.548;2022-11-06T14:06:15;18.70;90.60
31391;DHT22;18022;45.492;11.548;2022-11-06T14:08:48;18.70;91.70
31391;DHT22;18022;45.492;11.548;2022-11-06T14:11:20;18.50;91.50
31391;DHT22;18022;45.492;11.548;2022-11-06T14:14:34;18.50;91.20
31391;DHT22;18022;45.492;11.548;2022-11-06T14:22:36;17.90;91.20
31391;DHT22;18022;45.492;11.548;2022-11-06T14:26:03;17.90;91.70
31391;DHT22;18022;45.492;11.548;2022-11-06T14:28:09;17.80;91.50
31391;DHT22;18022;45.492;11.548;2022-11-06T14:33:02;17.50;92.20
31391;DHT22;18022;45.492;11.548;2022-11-06T14:40:36;17.30;93.00
31391;DHT22;18022;45.492;11.548;2022-11-06T14:46:00;17.10;93.60
31391;DHT22;18022;45.492;11.548;2022-11-06T14:48:35;17.00;93.40
31391;DHT22;18022;45.492;11.548;2022-11-06T14:51:04;16.90;93.00
31391;DHT22;18022;45.492;11.548;2022-11-06T14:53:34;16.90;93.20
31391;DHT22;18022;45.492;11.548;2022-11-06T14:56:09;16.80;93.60
31391;DHT22;18022;45.492;11.548;2022-11-06T14:58:47;16.70;93.30
31391;DHT22;18022;45.492;11.548;2022-11-06T15:01:15;16.70;93.50
31391;DHT22;18022;45.492;11.548;2022-11-06T15:03:54;16.60;94.20
31391;DHT22;18022;45.492;11.548;2022-11-06T15:12:06;16.20;96.70
31391;DHT22;18022;45.492;11.548;2022-11-06T15:17:05;15.70;97.70
31391;DHT22;18022;45.492;11.548;2022-11-06T15:19:57;15.70;98.10
31391;DHT22;18022;45.492;11.548;2022-11-06T15:22:45;15.60;98.10
31391;DHT22;18022;45.492;11.548;2022-11-06T15:27:52;15.40;98.50
31391;DHT22;18022;45.492;11.548;2022-11-06T15:30:19;15.40;99.10
31391;DHT22;18022;45.492;11.548;2022-11-06T15:32:46;15.30;99.40
31391;DHT22;18022;45.492;11.548;2022-11-06T15:35:22;15.20;99.40
31391;DHT22;18022;45.492;11.548;2022-11-06T15:38:01;15.10;99.30
31391;DHT22;18022;45.492;11.548;2022-11-06T15:40:31;14.90;99.80
31391;DHT22;18022;45.492;11.548;2022-11-06T15:43:27;14.70;99.90
31391;DHT22;18022;45.492;11.548;2022-11-06T15:48:35;14.50;99.90
31391;DHT22;18022;45.492;11.548;2022-11-06T15:51:01;14.60;99.90
31391;DHT22;18022;45.492;11.548;2022-11-06T15:53:29;14.50;99.90
31391;DHT22;18022;45.492;11.548;2022-11-06T15:56:05;14.40;99.90
31391;DHT22;18022;45.492;11.548;2022-11-06T15:58:36;14.40;99.90
31391;DHT22;18022;45.492;11.548;2022-11-06T16:01:05;14.30;99.90
31391;DHT22;18022;45.492;11.548;2022-11-06T16:03:41;14.20;99.90
31391;DHT22;18022;45.492;11.548;2022-11-06T16:06:08;14.20;99.90
31391;DHT22;18022;45.492;11.548;2022-11-06T16:08:34;14.20;99.90
31391;DHT22;18022;45.492;11.548;2022-11-06T16:11:00;14.10;99.90
31391;DHT22;18022;45.492;11.548;2022-11-06T16:13:27;14.00;99.90
31391;DHT22;18022;45.492;11.548;2022-11-06T16:15:56;14.00;99.90
31391;DHT22;18022;45.492;11.548;2022-11-06T16:18:42;13.80;99.90
31391;DHT22;18022;45.492;11.548;2022-11-06T16:23:40;13.50;99.90
31391;DHT22;18022;45.492;11.548;2022-11-06T16:26:11;13.40;99.90
31391;DHT22;18022;45.492;11.548;2022-11-06T16:28:48;13.30;99.90
31391;DHT22;18022;45.492;11.548;2022-11-06T16:31:15;13.20;99.90
31391;DHT22;18022;45.492;11.548;2022-11-06T16:34:01;13.20;99.90
31391;DHT22;18022;45.492;11.548;2022-11-06T16:36:29;13.30;99.90
31391;DHT22;18022;45.492;11.548;2022-11-06T16:44:25;13.10;99.90
31391;DHT22;18022;45.492;11.548;2022-11-06T16:49:34;13.00;99.90
31391;DHT22;18022;45.492;11.548;2022-11-06T16:52:00;13.10;99.90
31391;DHT22;18022;45.492;11.548;2022-11-06T16:54:26;12.90;99.90
31391;DHT22;18022;45.492;11.548;2022-11-06T16:57:09;13.00;99.90
31391;DHT22;18022;45.492;11.548;2022-11-06T16:59:38;12.90;99.90
31391;DHT22;18022;45.492;11.548;2022-11-06T17:02:08;12.80;99.90
31391;DHT22;18022;45.492;11.548;2022-11-06T17:04:43;12.70;99.90
31391;DHT22;18022;45.492;11.548;2022-11-06T17:07:17;12.40;99.90
31391;DHT22;18022;45.492;11.548;2022-11-06T17:09:44;12.30;99.90
31391;DHT22;18022;45.492;11.548;2022-11-06T17:12:10;12.30;99.90
31391;DHT22;18022;45.492;11.548;2022-11-06T17:14:35;12.30;99.90
31391;DHT22;18022;45.492;11.548;2022-11-06T17:17:02;12.40;99.90
31391;DHT22;18022;45.492;11.548;2022-11-06T17:19:28;12.20;99.90
31391;DHT22;18022;45.492;11.548;2022-11-06T17:21:54;12.10;99.90
31391;DHT22;18022;45.492;11.548;2022-11-06T17:24:20;12.40;99.90
31391;DHT22;18022;45.492;11.548;2022-11-06T17:26:49;12.70;99.90
31391;DHT22;18022;45.492;11.548;2022-11-06T17:29:16;12.90;99.90
31391;DHT22;18022;45.492;11.548;2022-11-06T17:31:42;12.70;99.90
31391;DHT22;18022;45.492;11.548;2022-11-06T17:34:08;12.50;99.90
31391;DHT22;18022;45.492;11.548;2022-11-06T17:36:36;12.40;99.90
31391;DHT22;18022;45.492;11.548;2022-11-06T17:39:03;12.40;99.90
31391;DHT22;18022;45.492;11.548;2022-11-06T17:41:29;12.40;99.90
31391;DHT22;18022;45.492;11.548;2022-11-06T17:43:59;12.30;99.90
31391;DHT22;18022;45.492;11.548;2022-11-06T17:46:32;12.60;99.90
31391;DHT22;18022;45.492;11.548;2022-11-06T17:48:59;13.20;99.90
31391;DHT22;18022;45.492;11.548;2022-11-06T17:51:26;13.20;99.90
31391;DHT22;18022;45.492;11.548;2022-11-06T17:54:11;13.10;99.90
31391;DHT22;18022;45.492;11.548;2022-11-06T17:56:37;12.90;99.90
31391;DHT22;18022;45.492;11.548;2022-11-06T17:59:03;12.70;99.90
31391;DHT22;18022;45.492;11.548;2022-11-06T18:01:29;12.40;99.90
31391;DHT22;18022;45.492;11.548;2022-11-06T18:03:55;12.20;99.90
31391;DHT22;18022;45.492;11.548;2022-11-06T18:06:21;12.00;99.90
31391;DHT22;18022;45.492;11.548;2022-11-06T18:08:46;11.80;99.90
31391;DHT22;18022;45.492;11.548;2022-11-06T18:11:12;11.50;99.90
31391;DHT22;18022;45.492;11.548;2022-11-06T18:13:38;11.60;99.90
31391;DHT22;18022;45.492;11.548;2022-11-06T18:16:17;11.60;99.90
31391;DHT22;18022;45.492;11.548;2022-11-06T18:18:44;11.70;99.90
31391;DHT22;18022;45.492;11.548;2022-11-06T18:21:09;11.70;99.90
31391;DHT22;18022;45.492;11.548;2022-11-06T18:23:35;11.70;99.90
31391;DHT22;18022;45.492;11.548;2022-11-06T18:26:01;11.60;99.90
31391;DHT22;18022;45.492;11.548;2022-11-06T18:28:27;11.50;99.90
31391;DHT22;18022;45.492;11.548;2022-11-06T18:30:52;11.50;99.90